WetterOnline ( http://www.wetteronline.de )

Wetter aktuell München

Aktuelles Wetter: Weihenstephan-Dürnast (478m)

6-stündlich | Neueste Meldungen
Ortszeit Temperatur Wetter
So, 22.07. 2:00 16.5° C leichter Regen
Sa, 21.07. 20:00 18.9° C Sprühregen
Sa, 21.07. 14:00 17.3° C leichter Regen
Sa, 21.07. 8:00 16.8° C bedeckt
Sa, 21.07. 2:00 17.8° C Sprühregen
Fr, 20.07. 20:00 24.3° C wolkig
Fr, 20.07. 14:00 27.4° C wolkenlos
Fr, 20.07. 8:00 18.0° C wolkenlos
Ortszeit Temperatur Wetter
So, 22.07. 2:30 16.5° C Sprühregen
So, 22.07. 2:20 16.5° C Sprühregen
So, 22.07. 2:10 16.5° C leichter Regen
So, 22.07. 2:00 16.5° C leichter Regen
So, 22.07. 1:40 16.4° C leichter Regen
So, 22.07. 1:30 16.4° C leichter Regen
So, 22.07. 1:00 16.5° C leichter Regen
So, 22.07. 0:30 16.6° C Sprühregen
So, 22.07. 0:00 16.7° C leichter Regen
Sa, 21.07. 23:30 17.0° C Sprühregen
Ortszeit Relative Feuchte Sichtweite
So, 22.07. 2:00 99% 4.0 km
Sa, 21.07. 20:00 84% 23 km
Sa, 21.07. 14:00 92% 14 km
Sa, 21.07. 8:00 94% 14 km
Sa, 21.07. 2:00 89% 14 km
Fr, 20.07. 20:00 54% 26 km
Fr, 20.07. 14:00 35% 24 km
Fr, 20.07. 8:00 65% 23 km
Ortszeit Relative Feuchte Sichtweite
So, 22.07. 2:30 98% 3.9 km
So, 22.07. 2:20 98% -
So, 22.07. 2:10 98% -
So, 22.07. 2:00 99% 4.0 km
So, 22.07. 1:40 99% -
So, 22.07. 1:30 98% 3.8 km
So, 22.07. 1:00 98% 4.4 km
So, 22.07. 0:30 97% 4.3 km
So, 22.07. 0:00 98% 5.0 km
Sa, 21.07. 23:30 96% 8 km
Ortszeit Niederschlagsmenge Niederschlagsart
So, 22.07. 2:00 5 l/m2 in 6 Std. Regen
Sa, 21.07. 20:00 9 l/m2 in 12 Std. Regen
Sa, 21.07. 14:00 9 l/m2 in 6 Std. Regen
Sa, 21.07. 8:00 1 l/m2 in 12 Std. Regen
Sa, 21.07. 2:00 0.9 l/m2 in 6 Std. Regen
Fr, 20.07. 20:00 0.0 l/m2 in 12 Std. -
Fr, 20.07. 14:00 0.0 l/m2 in 6 Std. -
Fr, 20.07. 8:00 0.0 l/m2 in 12 Std. -
Ortszeit Niederschlagsmenge Niederschlagsart
So, 22.07. 2:30 0.1 l/m2 in 1 Std. -
So, 22.07. 2:20 keine Meldung -
So, 22.07. 2:10 keine Meldung -
So, 22.07. 2:00 1.0 l/m2 in 1 Std. Regen
So, 22.07. 1:40 keine Meldung -
So, 22.07. 1:30 0.6 l/m2 in 1 Std. -
So, 22.07. 1:00 1.2 l/m2 in 1 Std. Regen
So, 22.07. 0:30 0.7 l/m2 in 1 Std. -
So, 22.07. 0:00 1.0 l/m2 in 1 Std. Regen
Sa, 21.07. 23:30 0.1 l/m2 in 1 Std. -
Ortszeit Stärke Spitze Richtung
km/h Bft. km/h Grad Sektor
So, 22.07. 2:00 7 2 24 250° W
Sa, 21.07. 20:00 7 2 11 270° W
Sa, 21.07. 14:00 9 2 26 240° SW
Sa, 21.07. 8:00 14 3 22 240° SW
Sa, 21.07. 2:00 14 3 25 260° W
Fr, 20.07. 20:00 4 1 22 30° NO
Fr, 20.07. 14:00 7 2 25 130° SO
Fr, 20.07. 8:00 4 1 7 130° SO
Ortszeit Stärke Spitze Richtung
km/h Bft. km/h Grad Sektor
So, 22.07. 2:30 7 2 11 250° W
So, 22.07. 2:20 7 2 - 250° W
So, 22.07. 2:10 7 2 - 250° W
So, 22.07. 2:00 7 2 13 250° W
So, 22.07. 1:40 7 2 - 250° W
So, 22.07. 1:30 9 2 13 260° W
So, 22.07. 1:00 9 2 17 260° W
So, 22.07. 0:30 11 2 17 260° W
So, 22.07. 0:00 11 2 22 260° W
Sa, 21.07. 23:30 13 3 20 250° W
Ortszeit Untergrenze Bedeckung Gattung
total tief tief mittel hoch
So, 22.07. 2:00 150 m 7/8 7/8 - - -
Sa, 21.07. 20:00 2100 m 8/8 2/8 - - -
Sa, 21.07. 14:00 180 m 8/8 8/8 - - -
Sa, 21.07. 8:00 2100 m 8/8 8/8 - - -
Sa, 21.07. 2:00 1800 m 8/8 1/8 - - -
Fr, 20.07. 20:00 7800 m 7/8 0/8 - - -
Fr, 20.07. 14:00 - 0/8 0/8 - - -
Fr, 20.07. 8:00 - 0/8 0/8 - - -
Ortszeit Bedeckungsgrad in Achtel und Wolkenuntergrenze
So, 22.07. 2:30 5(120m) 8(2400m) 8(4500m)
So, 22.07. 2:20 5(120m) 8(2400m) 8(4500m)
So, 22.07. 2:10 7(180m) 8(2700m) 8(4500m)
So, 22.07. 2:00 5(150m) 7(2100m) 8(4500m)
So, 22.07. 1:40 5(150m) 6(1800m) 7(2100m)
So, 22.07. 1:30 5(150m) 7(2700m) 7(3300m)
So, 22.07. 1:00 5(180m) 7(2100m) 8(2400m)
So, 22.07. 0:30 1(180m) 7(1800m) 8(2400m)
So, 22.07. 0:00 1(90m) 4(1320m) 8(1800m)
Sa, 21.07. 23:30 4(240m) 7(480m) 8(750m)
Ortszeit Luftdruck NN (hPa) Tendenz (hPa in 3 Std.)
So, 22.07. 2:00 1013 - 0,1
Sa, 21.07. 20:00 1011 - 0,3
Sa, 21.07. 14:00 1013 0,0
Sa, 21.07. 8:00 1012 + 0,1
Sa, 21.07. 2:00 1011 - 0,3
Fr, 20.07. 20:00 1010 - 0,7
Fr, 20.07. 14:00 1012 - 1,0
Fr, 20.07. 8:00 1014 - 0,4
Ortszeit Luftdruck NN (hPa) Tendenz (hPa in 3 Std.)
So, 22.07. 2:30 1013 - 0,3
So, 22.07. 2:20 1013 keine Meldung
So, 22.07. 2:10 1013 keine Meldung
So, 22.07. 2:00 1013 - 0,1
So, 22.07. 1:40 1013 keine Meldung
So, 22.07. 1:30 1013 0,0
So, 22.07. 1:00 1013 + 0,1
So, 22.07. 0:30 1013 + 0,6
So, 22.07. 0:00 1013 + 1,0
Sa, 21.07. 23:30 1013 + 0,8
Ortszeit Schneehöhe (cm)
So, 22.07. 2:00 -
Sa, 21.07. 20:00 -
Sa, 21.07. 14:00 -
Sa, 21.07. 8:00 -
Sa, 21.07. 2:00 -
Fr, 20.07. 20:00 -
Fr, 20.07. 14:00 -
Fr, 20.07. 8:00 -
Ortszeit Schneehöhe (cm)
So, 22.07. 2:30 -
So, 22.07. 2:20 -
So, 22.07. 2:10 -
So, 22.07. 2:00 -
So, 22.07. 1:40 -
So, 22.07. 1:30 -
So, 22.07. 1:00 -
So, 22.07. 0:30 -
So, 22.07. 0:00 -
Sa, 21.07. 23:30 -
Link zu dieser Seite / Seite empfehlen

Das Wetter in ...